Time;durP1;ratioP1;P1;durP2;ratioP2;P2;SDS_P1;SDS_P2;PMS_P1;PMS_P2;Temp;Humidity;BMP_temperature;BMP_pressure;BME280_temperature;BME280_humidity;BME280_pressure;Samples;Min_cycle;Max_cycle;Signal;HPM_P1;HPM_P2
2023/08/27 00:00:54;;;;;;;2.60;1.45;;;24.40;34.40;;;;;;20924558;28;20041;-55
2023/08/27 00:10:59;;;;;;;4.10;1.85;;;24.10;36.20;;;;;;20921314;28;20087;-56
2023/08/27 00:21:00;;;;;;;4.80;1.35;;;24.00;37.50;;;;;;20922757;28;20037;-56
2023/08/27 00:31:03;;;;;;;3.55;1.25;;;23.70;38.60;;;;;;20921220;28;20059;-58
2023/08/27 00:41:03;;;;;;;4.50;1.33;;;23.60;39.40;;;;;;20921515;28;20502;-56
2023/08/27 00:51:04;;;;;;;3.47;0.98;;;23.40;39.80;;;;;;20920681;28;20041;-57
2023/08/27 01:01:05;;;;;;;3.28;1.00;;;23.30;40.20;;;;;;20920023;28;20041;-56
2023/08/27 01:11:21;;;;;;;4.03;1.17;;;23.20;40.10;;;;;;20918982;28;20045;-57
2023/08/27 01:21:22;;;;;;;3.83;1.17;;;23.10;40.00;;;;;;20917293;28;20462;-57
2023/08/27 01:31:30;;;;;;;2.60;1.35;;;23.00;40.30;;;;;;20915752;28;20068;-57
2023/08/27 01:41:30;;;;;;;3.33;1.27;;;23.00;40.40;;;;;;20917171;28;20483;-57
2023/08/27 01:51:31;;;;;;;2.03;1.33;;;22.90;40.60;;;;;;20916379;28;20114;-57
2023/08/27 02:01:32;;;;;;;3.15;1.88;;;22.70;40.90;;;;;;20915463;28;20102;-56
2023/08/27 02:11:32;;;;;;;3.38;1.20;;;22.70;40.90;;;;;;20914765;28;20136;-57
2023/08/27 02:21:33;;;;;;;2.13;1.45;;;22.60;40.30;;;;;;20914077;28;20087;-56
2023/08/27 02:31:34;;;;;;;3.40;2.30;;;22.80;40.80;;;;;;20912629;28;20059;-57
2023/08/27 02:41:35;;;;;;;3.95;2.10;;;22.40;41.70;;;;;;20913208;28;20124;-57
2023/08/27 02:51:35;;;;;;;5.07;1.48;;;22.20;42.40;;;;;;20911245;28;20040;-56
2023/08/27 03:01:36;;;;;;;3.08;1.50;;;22.00;43.10;;;;;;20911047;28;20517;-57
2023/08/27 03:11:37;;;;;;;3.17;1.63;;;21.80;43.60;;;;;;20912038;28;20095;-57
2023/08/27 03:21:38;;;;;;;3.45;1.60;;;21.70;43.40;;;;;;20911555;28;20049;-57
2023/08/27 03:31:38;;;;;;;1.90;1.40;;;21.70;43.00;;;;;;20910092;28;20095;-57
2023/08/27 03:41:39;;;;;;;3.00;1.00;;;21.80;42.50;;;;;;20913769;28;20052;-56
2023/08/27 03:51:40;;;;;;;3.45;1.02;;;21.60;42.90;;;;;;20923890;28;20049;-57
2023/08/27 04:01:41;;;;;;;2.85;1.08;;;21.60;42.50;;;;;;20924200;28;20574;-57
2023/08/27 04:11:42;;;;;;;1.65;1.10;;;21.60;42.30;;;;;;20923316;28;20128;-57
2023/08/27 04:21:43;;;;;;;2.08;1.05;;;21.50;41.90;;;;;;20923053;28;20067;-57
2023/08/27 04:31:43;;;;;;;1.65;0.98;;;21.40;41.10;;;;;;20921165;28;20399;-57
2023/08/27 04:41:44;;;;;;;1.90;0.90;;;21.30;41.10;;;;;;20921794;28;20116;-56
2023/08/27 04:51:45;;;;;;;1.30;0.70;;;21.20;42.00;;;;;;20920734;28;20123;-56
2023/08/27 05:01:46;;;;;;;1.10;0.80;;;21.30;41.70;;;;;;20919889;28;20048;-56
2023/08/27 05:11:46;;;;;;;1.33;0.80;;;21.20;42.30;;;;;;20919029;28;20124;-57
2023/08/27 05:21:47;;;;;;;2.40;0.93;;;21.20;42.10;;;;;;20918195;28;20123;-57
2023/08/27 05:31:48;;;;;;;1.13;0.70;;;21.20;41.60;;;;;;20916208;28;20146;-57
2023/08/27 05:41:49;;;;;;;2.58;0.88;;;21.10;38.20;;;;;;20916416;28;20448;-57
2023/08/27 05:51:49;;;;;;;1.67;0.80;;;20.70;38.20;;;;;;20916003;28;20085;-55
2023/08/27 06:01:51;;;;;;;1.67;0.82;;;20.40;38.20;;;;;;20915191;28;20040;-57
2023/08/27 06:11:51;;;;;;;2.35;1.13;;;20.10;38.90;;;;;;20913968;28;20045;-57
2023/08/27 06:21:52;;;;;;;2.80;0.77;;;19.90;38.70;;;;;;20914075;28;20073;-57
2023/08/27 06:31:53;;;;;;;6.53;0.70;;;19.80;38.70;;;;;;20912710;28;20095;-57
2023/08/27 06:41:54;;;;;;;2.95;0.82;;;19.90;38.10;;;;;;20913323;28;20490;-57
2023/08/27 06:51:54;;;;;;;1.98;0.70;;;20.00;38.00;;;;;;20911625;28;20350;-57
2023/08/27 07:01:55;;;;;;;3.95;0.80;;;19.80;38.50;;;;;;20912516;28;20049;-57
2023/08/27 07:11:56;;;;;;;4.00;0.63;;;19.90;38.60;;;;;;20911816;28;20045;-58
2023/08/27 07:21:57;;;;;;;3.20;0.90;;;20.30;38.70;;;;;;20923578;28;20048;-57
2023/08/27 07:31:57;;;;;;;4.05;0.88;;;20.30;39.10;;;;;;20926097;28;20064;-58
2023/08/27 07:41:59;;;;;;;3.95;0.70;;;20.30;38.90;;;;;;20926281;28;20076;-56
2023/08/27 07:52:00;;;;;;;1.33;0.50;;;20.40;38.50;;;;;;20923658;28;20041;-56
2023/08/27 08:02:01;;;;;;;1.52;0.70;;;20.40;37.90;;;;;;20924067;28;20043;-57
2023/08/27 08:12:02;;;;;;;1.98;0.80;;;20.70;38.00;;;;;;20923446;28;20077;-58
2023/08/27 08:22:02;;;;;;;3.70;1.10;;;20.90;38.10;;;;;;20922939;28;20048;-57
2023/08/27 08:32:04;;;;;;;4.35;0.90;;;21.20;37.00;;;;;;20921093;28;20064;-59
2023/08/27 08:42:17;;;;;;;3.33;0.73;;;21.20;36.00;;;;;;20921302;28;20090;-57
2023/08/27 08:52:21;;;;;;;3.58;0.80;;;21.20;35.70;;;;;;20920722;28;20041;-57
2023/08/27 09:02:22;;;;;;;4.05;0.73;;;21.20;35.70;;;;;;20919928;28;20072;-57
2023/08/27 09:12:24;;;;;;;1.73;0.75;;;21.50;35.50;;;;;;20918659;28;20041;-57
2023/08/27 09:22:25;;;;;;;1.87;0.73;;;21.60;35.40;;;;;;20916882;28;20037;-57
2023/08/27 09:32:27;;;;;;;3.25;0.88;;;21.60;35.40;;;;;;20917027;28;20056;-57
2023/08/27 09:42:28;;;;;;;1.60;0.50;;;21.70;35.50;;;;;;20915318;28;20084;-57
2023/08/27 09:52:29;;;;;;;1.65;0.75;;;22.00;34.90;;;;;;20916007;28;20056;-58
2023/08/27 10:02:30;;;;;;;2.08;0.70;;;22.10;34.60;;;;;;20915648;28;20053;-57
2023/08/27 10:12:32;;;;;;;2.92;0.98;;;22.20;34.60;;;;;;20914691;28;20056;-57
2023/08/27 10:22:33;;;;;;;5.88;0.90;;;22.60;33.70;;;;;;20912192;28;20052;-57
2023/08/27 10:32:34;;;;;;;2.10;0.77;;;22.60;33.30;;;;;;20912779;28;20498;-58
2023/08/27 10:42:39;;;;;;;2.25;1.00;;;22.90;33.20;;;;;;20912917;28;20435;-57
2023/08/27 10:52:50;;;;;;;3.95;0.80;;;23.20;31.60;;;;;;20918476;28;20052;-58
2023/08/27 11:03:13;;;;;;;3.40;0.80;;;23.20;33.00;;;;;;20928576;28;20045;-57
2023/08/27 11:13:36;;;;;;;2.28;0.90;;;23.30;32.60;;;;;;20927596;28;20049;-57
2023/08/27 11:23:37;;;;;;;;;;;23.40;31.90;;;;;;20927871;28;20041;-56
2023/08/27 11:33:39;;;;;;;1.65;0.70;;;23.40;31.10;;;;;;20927369;28;19928;-57
2023/08/27 11:43:40;;;;;;;;;;;23.60;31.80;;;;;;20926665;28;20077;-58
2023/08/27 11:53:44;;;;;;;4.10;0.90;;;23.60;30.70;;;;;;20925255;28;19921;-58
2023/08/27 12:03:48;;;;;;;2.17;0.82;;;23.60;31.90;;;;;;20922274;28;20130;-58
2023/08/27 12:13:49;;;;;;;1.95;1.00;;;23.60;31.90;;;;;;20923822;28;20533;-57
2023/08/27 12:23:51;;;;;;;2.15;1.00;;;23.40;32.40;;;;;;20921634;28;20052;-57
2023/08/27 12:34:00;;;;;;;4.00;1.73;;;23.60;32.00;;;;;;20922351;28;20053;-56
2023/08/27 12:44:01;;;;;;;1.52;0.90;;;23.70;31.30;;;;;;20921055;28;20068;-56
2023/08/27 12:54:02;;;;;;;1.63;1.00;;;23.70;31.10;;;;;;20920290;28;20422;-58
2023/08/27 13:04:03;;;;;;;3.10;1.13;;;23.80;30.40;;;;;;20918534;28;20049;-57
2023/08/27 13:14:04;;;;;;;2.90;1.83;;;24.10;29.80;;;;;;20918614;28;20506;-57
2023/08/27 13:24:05;;;;;;;4.75;1.70;;;24.40;29.00;;;;;;20917797;28;20044;-56
2023/08/27 13:34:07;;;;;;;1.90;1.00;;;24.30;28.40;;;;;;20917494;28;20114;-57
2023/08/27 13:44:08;;;;;;;2.80;1.70;;;24.20;27.60;;;;;;20916398;28;20049;-57
2023/08/27 13:54:09;;;;;;;1.90;1.15;;;24.30;27.10;;;;;;20915905;28;20045;-57
2023/08/27 14:04:10;;;;;;;3.90;2.78;;;24.40;26.60;;;;;;20914984;28;20127;-57
2023/08/27 14:14:11;;;;;;;3.55;1.80;;;24.70;25.40;;;;;;20912917;28;20037;-57
2023/08/27 14:24:12;;;;;;;1.85;1.00;;;25.00;25.70;;;;;;20912461;28;20041;-57
2023/08/27 14:34:14;;;;;;;2.23;1.07;;;25.20;25.40;;;;;;20912334;28;20067;-58
2023/08/27 14:44:15;;;;;;;2.47;1.70;;;25.30;25.50;;;;;;20912345;28;20053;-60
2023/08/27 14:54:15;;;;;;;3.72;1.08;;;25.50;25.40;;;;;;20911749;28;20498;-57
2023/08/27 15:04:17;;;;;;;2.65;0.98;;;25.70;25.50;;;;;;20911242;28;20532;-57
2023/08/27 15:14:21;;;;;;;1.85;1.15;;;25.50;25.50;;;;;;20911078;28;20120;-59
2023/08/27 15:24:22;;;;;;;4.03;0.85;;;25.50;25.90;;;;;;20910612;28;20067;-57
2023/08/27 15:34:23;;;;;;;3.27;1.20;;;25.40;26.00;;;;;;20910155;28;20061;-58
2023/08/27 15:44:24;;;;;;;1.77;0.93;;;25.60;24.80;;;;;;20924580;28;20049;-57
2023/08/27 15:54:26;;;;;;;3.27;1.20;;;25.60;24.60;;;;;;20924316;28;20045;-58
2023/08/27 16:04:27;;;;;;;;;;;25.70;24.90;;;;;;20925184;28;20122;-58
2023/08/27 16:14:27;;;;;;;2.70;1.10;;;25.70;24.90;;;;;;20923955;28;19921;-59
2023/08/27 16:24:28;;;;;;;3.63;1.50;;;25.70;24.80;;;;;;20922837;28;20052;-58
2023/08/27 16:34:29;;;;;;;3.10;1.20;;;25.60;25.10;;;;;;20921389;28;20053;-57
2023/08/27 16:44:29;;;;;;;1.70;0.97;;;25.60;24.30;;;;;;20920161;28;20072;-59
2023/08/27 16:54:30;;;;;;;2.93;1.03;;;25.60;24.60;;;;;;20920417;28;20128;-56
2023/08/27 17:04:31;;;;;;;2.67;1.30;;;25.40;24.60;;;;;;20918838;28;20052;-58
2023/08/27 17:14:32;;;;;;;2.97;1.33;;;25.40;25.00;;;;;;20919066;28;20172;-60
2023/08/27 17:24:32;;;;;;;2.27;1.40;;;25.50;24.40;;;;;;20916797;28;20041;-57
2023/08/27 17:34:33;;;;;;;2.27;1.10;;;25.30;24.70;;;;;;20916201;28;20063;-58
2023/08/27 17:44:35;;;;;;;4.88;1.35;;;25.30;24.80;;;;;;20915137;28;20044;-59
2023/08/27 17:54:47;;;;;;;2.63;1.37;;;25.40;30.00;;;;;;20912729;28;20045;-57
2023/08/27 18:04:48;;;;;;;5.18;1.15;;;25.20;24.30;;;;;;20914388;28;20282;-57
2023/08/27 18:14:49;;;;;;;3.17;1.30;;;25.10;24.50;;;;;;20913132;28;20055;-57
2023/08/27 18:24:49;;;;;;;2.20;1.10;;;25.10;24.50;;;;;;20912586;28;20117;-57
2023/08/27 18:34:50;;;;;;;3.03;1.10;;;24.90;24.90;;;;;;20911811;28;20111;-56
2023/08/27 18:44:52;;;;;;;2.22;1.08;;;24.70;25.10;;;;;;20911799;28;20041;-58
2023/08/27 18:54:53;;;;;;;2.55;1.08;;;24.60;25.60;;;;;;20912695;28;20049;-57
2023/08/27 19:04:54;;;;;;;3.38;1.52;;;24.60;26.20;;;;;;20912200;28;20048;-57
2023/08/27 19:14:55;;;;;;;2.60;1.50;;;24.50;26.70;;;;;;20920656;28;20040;-57
2023/08/27 19:24:56;;;;;;;2.58;1.42;;;24.50;27.10;;;;;;20927792;28;20469;-57
2023/08/27 19:34:56;;;;;;;3.65;1.30;;;24.40;27.10;;;;;;20926063;28;20111;-57
2023/08/27 19:44:57;;;;;;;2.97;1.20;;;24.30;27.50;;;;;;20926404;28;20041;-58
2023/08/27 19:54:58;;;;;;;2.88;1.10;;;24.20;28.00;;;;;;20925796;28;20041;-57
2023/08/27 20:04:59;;;;;;;3.45;1.40;;;24.10;28.20;;;;;;20924846;28;20095;-59
2023/08/27 20:15:00;;;;;;;3.38;1.25;;;24.00;28.50;;;;;;20924095;28;20119;-60
2023/08/27 20:25:00;;;;;;;3.90;1.00;;;23.90;28.80;;;;;;20923004;28;20068;-58
2023/08/27 20:35:01;;;;;;;3.35;1.10;;;23.70;32.20;;;;;;20923002;28;20061;-57
2023/08/27 20:45:04;;;;;;;2.53;1.90;;;23.40;33.30;;;;;;20921792;28;20474;-59
2023/08/27 20:55:05;;;;;;;2.70;1.00;;;23.30;34.60;;;;;;20921225;28;20044;-58
2023/08/27 21:05:05;;;;;;;1.75;0.85;;;22.90;35.40;;;;;;20919069;28;20048;-57
2023/08/27 21:15:06;;;;;;;2.03;1.00;;;22.80;35.90;;;;;;20919609;28;20076;-57
2023/08/27 21:25:07;;;;;;;2.10;0.98;;;22.60;36.30;;;;;;20918758;28;20041;-56
2023/08/27 21:35:08;;;;;;;2.33;0.98;;;22.50;36.40;;;;;;20915937;28;20105;-57
2023/08/27 21:45:09;;;;;;;2.33;1.30;;;22.40;36.30;;;;;;20917728;28;20076;-58
2023/08/27 21:55:10;;;;;;;3.22;1.48;;;22.30;36.40;;;;;;20916238;28;20063;-60
2023/08/27 22:05:13;;;;;;;2.15;1.20;;;22.30;36.70;;;;;;20915639;28;20045;-57
2023/08/27 22:15:13;;;;;;;2.03;0.90;;;22.20;37.00;;;;;;20914903;28;20063;-58
2023/08/27 22:25:14;;;;;;;1.98;0.80;;;22.20;36.80;;;;;;20913234;28;20095;-58
2023/08/27 22:35:17;;;;;;;1.65;1.00;;;22.20;36.60;;;;;;20914096;28;20060;-58
2023/08/27 22:45:17;;;;;;;1.43;0.90;;;22.10;36.30;;;;;;20914762;28;20045;-56
2023/08/27 22:55:18;;;;;;;3.08;2.17;;;21.80;36.90;;;;;;20929132;28;20048;-57
2023/08/27 23:05:19;;;;;;;3.03;1.10;;;21.70;37.20;;;;;;20929816;28;20121;-57
2023/08/27 23:15:20;;;;;;;1.70;0.60;;;21.40;37.90;;;;;;20929048;28;20045;-57
2023/08/27 23:25:20;;;;;;;1.90;0.70;;;21.30;38.30;;;;;;20928572;28;20049;-56
2023/08/27 23:35:21;;;;;;;1.90;0.77;;;21.30;38.70;;;;;;20928491;28;20477;-57
2023/08/27 23:45:22;;;;;;;1.13;0.77;;;21.20;39.10;;;;;;20926818;28;20040;-58
2023/08/27 23:55:22;;;;;;;4.10;0.80;;;21.00;39.60;;;;;;20926040;28;20095;-56
